Time;durP1;ratioP1;P1;durP2;ratioP2;P2;SDS_P1;SDS_P2;PMS_P1;PMS_P2;Temp;Humidity;BMP_temperature;BMP_pressure;BME280_temperature;BME280_humidity;BME280_pressure;Samples;Min_cycle;Max_cycle;Signal;HPM_P1;HPM_P2
2021/05/09 00:01:39;;;;;;;;;;;13.70;76.30;;;;;;5073852;28;20304;-67
2021/05/09 00:04:06;;;;;;;;;;;13.80;75.90;;;;;;5078134;28;19944;-67
2021/05/09 00:06:32;;;;;;;;;;;13.80;76.40;;;;;;5075999;28;20283;-67
2021/05/09 00:08:58;;;;;;;;;;;13.70;76.50;;;;;;5086186;28;20267;-67
2021/05/09 00:11:24;;;;;;;;;;;13.60;76.80;;;;;;5074248;28;19916;-67
2021/05/09 00:13:49;;;;;;;;;;;13.50;77.20;;;;;;5105710;28;19939;-67
2021/05/09 00:16:16;;;;;;;;;;;13.50;77.40;;;;;;5106033;28;19919;-67
2021/05/09 00:18:43;;;;;;;;;;;13.40;78.00;;;;;;5099223;28;19912;-67
2021/05/09 00:21:10;;;;;;;;;;;13.20;78.60;;;;;;5115255;28;19911;-67
2021/05/09 00:23:36;;;;;;;;;;;12.80;80.00;;;;;;5087440;28;19924;-67
2021/05/09 00:26:03;;;;;;;;;;;12.50;81.10;;;;;;5117237;28;20005;-67
2021/05/09 00:28:28;;;;;;;;;;;12.20;82.30;;;;;;5117961;28;19961;-67
2021/05/09 00:30:54;;;;;;;;;;;12.00;83.10;;;;;;5090765;28;19947;-67
2021/05/09 00:33:20;;;;;;;;;;;12.10;82.70;;;;;;5116748;28;19927;-67
2021/05/09 00:35:46;;;;;;;;;;;12.30;82.10;;;;;;5115264;28;20291;-67
2021/05/09 00:38:13;;;;;;;;;;;12.40;81.80;;;;;;5111869;28;19920;-67
2021/05/09 00:40:39;;;;;;;;;;;12.60;80.80;;;;;;5109970;27;20300;-67
2021/05/09 00:43:04;;;;;;;;;;;12.70;80.30;;;;;;5117597;28;19915;-67
2021/05/09 00:45:30;;;;;;;;;;;12.80;80.20;;;;;;5089854;28;19912;-67
2021/05/09 00:47:56;;;;;;;;;;;12.90;80.00;;;;;;5103642;28;19955;-67
2021/05/09 00:50:23;;;;;;;;;;;12.90;80.10;;;;;;5112908;28;19912;-67
2021/05/09 00:52:49;;;;;;;;;;;12.90;80.30;;;;;;5089352;28;19923;-67
2021/05/09 00:55:16;;;;;;;;;;;12.80;80.50;;;;;;5094480;28;19911;-67
2021/05/09 00:57:45;;;;;;;;;;;12.80;80.50;;;;;;5096441;28;19912;-67
2021/05/09 01:00:11;;;;;;;;;;;12.80;80.70;;;;;;5093950;28;20212;-67
2021/05/09 01:02:39;;;;;;;;;;;13.00;79.60;;;;;;5100978;28;19920;-67
2021/05/09 01:05:05;;;;;;;;;;;13.10;80.00;;;;;;5108333;28;19912;-67
2021/05/09 01:07:31;;;;;;;;;;;12.90;80.30;;;;;;5109461;28;19969;-67
2021/05/09 01:09:59;;;;;;;;;;;12.80;80.80;;;;;;5114606;27;19919;-67
2021/05/09 01:12:25;;;;;;;;;;;12.80;80.30;;;;;;5111018;28;20323;-67
2021/05/09 01:14:51;;;;;;;;;;;12.90;80.30;;;;;;5113716;28;19987;-67
2021/05/09 01:17:16;;;;;;;;;;;13.00;79.90;;;;;;5097486;28;19919;-67
2021/05/09 01:19:43;;;;;;;;;;;13.20;79.10;;;;;;5115882;28;19926;-67
2021/05/09 01:22:11;;;;;;;;;;;13.20;79.30;;;;;;5097286;28;19928;-67
2021/05/09 01:24:39;;;;;;;;;;;13.10;79.50;;;;;;5110910;28;19919;-67
2021/05/09 01:27:05;;;;;;;;;;;13.20;79.00;;;;;;5116429;28;20243;-67
2021/05/09 01:29:31;;;;;;;;;;;13.30;79.00;;;;;;5108214;28;19912;-67
2021/05/09 01:31:57;;;;;;;;;;;13.40;78.50;;;;;;5110403;28;19916;-67
2021/05/09 01:34:24;;;;;;;;;;;13.40;78.50;;;;;;5109141;28;20019;-67
2021/05/09 01:36:49;;;;;;;;;;;13.60;77.70;;;;;;5107663;28;19919;-67
2021/05/09 01:39:15;;;;;;;;;;;13.70;77.40;;;;;;5109997;28;20236;-67
2021/05/09 01:41:41;;;;;;;;;;;13.70;77.20;;;;;;5097445;28;19912;-67
2021/05/09 01:44:07;;;;;;;;;;;13.80;76.80;;;;;;5097822;28;19915;-67
2021/05/09 01:46:32;;;;;;;;;;;13.60;77.30;;;;;;5114818;28;19966;-67
2021/05/09 01:48:58;;;;;;;;;;;13.50;77.50;;;;;;5091098;28;19916;-67
2021/05/09 01:51:24;;;;;;;;;;;13.60;77.60;;;;;;5098347;28;19919;-67
2021/05/09 01:53:50;;;;;;;;;;;13.50;77.80;;;;;;5115200;28;20266;-67
2021/05/09 01:56:16;;;;;;;;;;;13.50;78.10;;;;;;5091752;28;19916;-67
2021/05/09 01:58:41;;;;;;;;;;;13.50;78.00;;;;;;5087198;28;20015;-67
2021/05/09 02:01:07;;;;;;;;;;;13.60;77.90;;;;;;5101563;28;20280;-67
2021/05/09 02:03:33;;;;;;;;;;;13.70;77.80;;;;;;5101375;28;19962;-67
2021/05/09 02:05:59;;;;;;;;;;;13.60;77.80;;;;;;5113607;28;19912;-67
2021/05/09 02:08:25;;;;;;;;;;;13.70;77.60;;;;;;5104233;28;19922;-67
2021/05/09 02:10:51;;;;;;;;;;;13.80;77.50;;;;;;5103845;28;20010;-67
2021/05/09 02:13:17;;;;;;;;;;;13.90;77.50;;;;;;5115187;28;19918;-67
2021/05/09 02:15:43;;;;;;;;;;;14.10;76.70;;;;;;5111524;28;19927;-67
2021/05/09 02:18:09;;;;;;;;;;;14.40;76.10;;;;;;5112268;28;19916;-67
2021/05/09 02:20:34;;;;;;;;;;;14.50;75.80;;;;;;5116229;28;20215;-67
2021/05/09 02:23:00;;;;;;;;;;;14.70;74.80;;;;;;5106197;28;20366;-67
2021/05/09 02:25:26;;;;;;;;;;;14.80;74.80;;;;;;5104773;28;20006;-67
2021/05/09 02:27:52;;;;;;;;;;;14.80;74.60;;;;;;5110971;28;19911;-67
2021/05/09 02:30:17;;;;;;;;;;;14.80;74.50;;;;;;5114472;28;19911;-67
2021/05/09 02:32:43;;;;;;;;;;;14.90;74.30;;;;;;5098996;28;19912;-67
2021/05/09 02:35:09;;;;;;;;;;;15.00;73.80;;;;;;5106760;28;19919;-67
2021/05/09 02:37:36;;;;;;;;;;;15.10;73.70;;;;;;5109400;28;19947;-67
2021/05/09 02:40:02;;;;;;;;;;;15.20;73.10;;;;;;5112079;28;19947;-67
2021/05/09 02:42:29;;;;;;;;;;;15.60;72.30;;;;;;5115508;28;19920;-67
2021/05/09 02:44:55;;;;;;;;;;;15.50;72.30;;;;;;5096959;28;19915;-67
2021/05/09 02:47:30;;;;;;;;;;;15.50;72.10;;;;;;5106183;28;19992;-68
2021/05/09 02:50:00;;;;;;;;;;;15.50;71.80;;;;;;5091245;28;19916;-67
2021/05/09 02:52:26;;;;;;;;;;;15.60;71.40;;;;;;5109112;28;19961;-67
2021/05/09 02:54:52;;;;;;;;;;;15.70;71.00;;;;;;5107148;28;20232;-67
2021/05/09 02:57:18;;;;;;;;;;;15.80;70.60;;;;;;5089313;28;19916;-67
2021/05/09 02:59:44;;;;;;;;;;;15.80;70.50;;;;;;5108478;28;19919;-67
2021/05/09 03:02:09;;;;;;;;;;;15.70;70.60;;;;;;5109567;28;20317;-67
2021/05/09 03:04:35;;;;;;;;;;;15.70;70.70;;;;;;5087379;28;20049;-67
2021/05/09 03:07:01;;;;;;;;;;;15.70;70.80;;;;;;5111133;28;19911;-67
2021/05/09 03:09:27;;;;;;;;;;;15.60;70.90;;;;;;5108698;28;20006;-67
2021/05/09 03:11:52;;;;;;;;;;;15.60;71.00;;;;;;5085865;28;19938;-67
2021/05/09 03:14:18;;;;;;;;;;;15.50;71.20;;;;;;5097082;28;19938;-67
2021/05/09 03:16:44;;;;;;;;;;;15.50;71.40;;;;;;5110849;28;19938;-67
2021/05/09 03:19:10;;;;;;;;;;;15.60;71.10;;;;;;5113051;28;19999;-67
2021/05/09 03:21:36;;;;;;;;;;;15.60;71.20;;;;;;5101343;28;19926;-67
2021/05/09 03:24:02;;;;;;;;;;;15.50;71.30;;;;;;5115343;28;19968;-67
2021/05/09 03:26:28;;;;;;;;;;;15.50;70.60;;;;;;5114272;28;19920;-67
2021/05/09 03:28:53;;;;;;;;;;;15.50;70.60;;;;;;5106766;28;20262;-67
2021/05/09 03:31:19;;;;;;;;;;;15.50;70.60;;;;;;5104140;28;19957;-67
2021/05/09 03:33:45;;;;;;;;;;;15.40;70.40;;;;;;5113110;28;19946;-67
2021/05/09 03:36:10;;;;;;;;;;;15.40;70.40;;;;;;5113507;28;19911;-67
2021/05/09 03:38:36;;;;;;;;;;;15.30;71.00;;;;;;5110505;28;19912;-67
2021/05/09 03:41:02;;;;;;;;;;;15.30;70.50;;;;;;5116651;28;19923;-67
2021/05/09 03:43:28;;;;;;;;;;;15.50;69.00;;;;;;5115769;28;19951;-67
2021/05/09 03:45:53;;;;;;;;;;;15.70;68.40;;;;;;5092684;28;19918;-67
2021/05/09 03:48:19;;;;;;;;;;;15.70;68.00;;;;;;5112677;28;19919;-67
2021/05/09 03:50:45;;;;;;;;;;;15.70;67.60;;;;;;5090762;28;19919;-67
2021/05/09 03:53:11;;;;;;;;;;;15.60;67.90;;;;;;5100089;28;20284;-67
2021/05/09 03:55:36;;;;;;;;;;;15.70;67.10;;;;;;5104685;28;19970;-67
2021/05/09 03:58:02;;;;;;;;;;;15.60;67.00;;;;;;5105094;28;19962;-67
2021/05/09 04:00:28;;;;;;;;;;;15.50;67.10;;;;;;5101735;28;20320;-67
2021/05/09 04:02:54;;;;;;;;;;;15.50;66.00;;;;;;5113943;28;19923;-67
2021/05/09 04:05:19;;;;;;;;;;;15.60;65.30;;;;;;5118835;28;19995;-67
2021/05/09 04:07:45;;;;;;;;;;;15.70;65.40;;;;;;5116140;28;19916;-67
2021/05/09 04:10:11;;;;;;;;;;;15.70;64.90;;;;;;5117975;28;19912;-67
2021/05/09 04:12:37;;;;;;;;;;;15.70;64.30;;;;;;5118759;28;19914;-67
2021/05/09 04:15:02;;;;;;;;;;;15.80;63.90;;;;;;5097244;28;19916;-67
2021/05/09 04:17:28;;;;;;;;;;;15.80;63.70;;;;;;5108366;28;19923;-67
2021/05/09 04:19:54;;;;;;;;;;;16.00;62.80;;;;;;5113170;28;19912;-67
2021/05/09 04:22:20;;;;;;;;;;;16.10;62.30;;;;;;5102198;28;19962;-67
2021/05/09 04:24:45;;;;;;;;;;;16.20;62.70;;;;;;5093797;28;19955;-67
2021/05/09 04:27:11;;;;;;;;;;;16.20;62.10;;;;;;5112815;28;19916;-67
2021/05/09 04:29:37;;;;;;;;;;;16.30;62.00;;;;;;5117274;27;19916;-67
2021/05/09 04:32:03;;;;;;;;;;;16.30;61.80;;;;;;5113417;28;19912;-67
2021/05/09 04:34:29;;;;;;;;;;;16.40;61.40;;;;;;5115294;28;19920;-68
2021/05/09 04:36:54;;;;;;;;;;;16.40;61.60;;;;;;5105678;28;19964;-67
2021/05/09 04:39:20;;;;;;;;;;;16.40;61.60;;;;;;5114974;28;19919;-67
2021/05/09 04:41:46;;;;;;;;;;;16.30;61.90;;;;;;5104904;28;21432;-67
2021/05/09 04:44:12;;;;;;;;;;;16.20;61.80;;;;;;5112027;28;19951;-68
2021/05/09 04:46:37;;;;;;;;;;;16.20;61.70;;;;;;5102294;28;20372;-67
2021/05/09 04:49:03;;;;;;;;;;;16.30;61.50;;;;;;5114202;28;19918;-67
2021/05/09 04:51:29;;;;;;;;;;;16.50;60.60;;;;;;5095166;28;19926;-68
2021/05/09 04:53:55;;;;;;;;;;;16.50;61.10;;;;;;5111074;28;19923;-67
2021/05/09 04:56:20;;;;;;;;;;;16.50;61.10;;;;;;5101915;28;19912;-67
2021/05/09 04:58:46;;;;;;;;;;;16.40;61.10;;;;;;5106733;28;19947;-67
2021/05/09 05:01:13;;;;;;;;;;;16.40;61.70;;;;;;5109373;27;19912;-67
2021/05/09 05:03:38;;;;;;;;;;;16.30;61.80;;;;;;5081330;28;19924;-67
2021/05/09 05:06:05;;;;;;;;;;;16.20;63.40;;;;;;5116426;28;19912;-67
2021/05/09 05:08:32;;;;;;;;;;;16.10;62.60;;;;;;5114105;28;19955;-67
2021/05/09 05:11:02;;;;;;;;;;;16.30;62.30;;;;;;5094493;28;19911;-67
2021/05/09 05:13:30;;;;;;;;;;;16.40;62.00;;;;;;5112742;28;19915;-67
2021/05/09 05:15:57;;;;;;;;;;;16.60;61.60;;;;;;5112846;28;19920;-67
2021/05/09 05:18:23;;;;;;;;;;;16.60;62.30;;;;;;5111713;28;20505;-67
2021/05/09 05:20:50;;;;;;;;;;;16.50;61.70;;;;;;5112399;28;19916;-67
2021/05/09 05:23:16;;;;;;;;;;;16.70;61.20;;;;;;5108668;28;19962;-67
2021/05/09 05:25:42;;;;;;;;;;;17.00;59.40;;;;;;5115726;28;19911;-67
2021/05/09 05:28:08;;;;;;;;;;;17.20;58.80;;;;;;5103641;28;19991;-67
2021/05/09 05:30:34;;;;;;;;;;;17.20;58.90;;;;;;5107701;28;20000;-67
2021/05/09 05:33:00;;;;;;;;;;;17.30;58.60;;;;;;5105354;28;19912;-67
2021/05/09 05:35:26;;;;;;;;;;;17.50;57.30;;;;;;5110131;28;19912;-67
2021/05/09 05:37:52;;;;;;;;;;;17.60;56.90;;;;;;5111747;28;19917;-67
2021/05/09 05:40:18;;;;;;;;;;;17.70;56.70;;;;;;5114634;28;19934;-68
2021/05/09 05:42:44;;;;;;;;;;;17.80;56.10;;;;;;5097982;28;19924;-67
2021/05/09 05:45:10;;;;;;;;;;;17.90;56.20;;;;;;5115552;28;19911;-67
2021/05/09 05:47:36;;;;;;;;;;;17.90;56.10;;;;;;5113715;28;19912;-67
2021/05/09 05:50:02;;;;;;;;;;;17.90;56.90;;;;;;5090960;28;19916;-67
2021/05/09 05:52:28;;;;;;;;;;;18.00;56.00;;;;;;5088209;28;20327;-67
2021/05/09 05:54:54;;;;;;;;;;;18.10;54.70;;;;;;5085983;28;19912;-67
2021/05/09 05:57:19;;;;;;;;;;;18.10;55.40;;;;;;5113964;28;19958;-67
2021/05/09 05:59:45;;;;;;;;;;;18.20;55.50;;;;;;5114595;28;19976;-68
2021/05/09 06:02:14;;;;;;;;;;;18.20;55.30;;;;;;5107938;28;20216;-68
2021/05/09 06:04:40;;;;;;;;;;;18.30;55.30;;;;;;5097362;28;19916;-67
2021/05/09 06:07:09;;;;;;;;;;;18.30;56.00;;;;;;5114321;28;19919;-68
2021/05/09 06:09:34;;;;;;;;;;;18.40;55.40;;;;;;5085876;28;19969;-67
2021/05/09 06:12:02;;;;;;;;;;;18.50;55.40;;;;;;5115183;28;20268;-67
2021/05/09 06:14:28;;;;;;;;;;;18.50;55.00;;;;;;5106541;28;20043;-67
2021/05/09 06:16:55;;;;;;;;;;;18.60;55.20;;;;;;5115786;28;20014;-68
2021/05/09 06:19:21;;;;;;;;;;;18.60;55.70;;;;;;5114329;28;19912;-67
2021/05/09 06:21:46;;;;;;;;;;;18.70;56.30;;;;;;5108952;28;19912;-67
2021/05/09 06:24:12;;;;;;;;;;;18.70;56.90;;;;;;5096136;28;19924;-67
2021/05/09 06:26:38;;;;;;;;;;;18.80;55.70;;;;;;5077987;28;19950;-66
2021/05/09 06:29:04;;;;;;;;;;;19.00;56.30;;;;;;5115009;28;20228;-66
2021/05/09 06:31:30;;;;;;;;;;;19.10;54.80;;;;;;5107005;28;20003;-67
2021/05/09 06:33:56;;;;;;;;;;;19.20;55.20;;;;;;5094840;28;19912;-66
2021/05/09 06:36:22;;;;;;;;;;;19.30;54.50;;;;;;5107930;28;19937;-67
2021/05/09 06:38:48;;;;;;;;;;;19.40;54.80;;;;;;5108704;28;19916;-66
2021/05/09 06:41:14;;;;;;;;;;;19.40;54.50;;;;;;5106458;28;19958;-66
2021/05/09 06:43:39;;;;;;;;;;;19.50;54.30;;;;;;5116224;28;19912;-67
2021/05/09 06:46:06;;;;;;;;;;;19.60;55.30;;;;;;5110724;28;19920;-66
2021/05/09 06:48:32;;;;;;;;;;;19.80;54.00;;;;;;5094255;28;19920;-66
2021/05/09 06:50:58;;;;;;;;;;;19.80;54.50;;;;;;5097133;28;19960;-66
2021/05/09 06:53:24;;;;;;;;;;;20.00;54.00;;;;;;5095781;28;19916;-67
2021/05/09 06:55:51;;;;;;;;;;;20.00;54.20;;;;;;5095434;28;21254;-67
2021/05/09 06:58:21;;;;;;;;;;;20.20;54.50;;;;;;5112344;28;19965;-66
2021/05/09 07:00:47;;;;;;;;;;;20.30;54.00;;;;;;5101508;28;20308;-66
2021/05/09 07:03:13;;;;;;;;;;;20.40;54.30;;;;;;5111695;28;19916;-66
2021/05/09 07:05:38;;;;;;;;;;;20.50;52.60;;;;;;5108570;28;19920;-66
2021/05/09 07:08:04;;;;;;;;;;;20.60;53.30;;;;;;5103497;28;20010;-66
2021/05/09 07:10:32;;;;;;;;;;;20.70;52.90;;;;;;5110594;28;20235;-66
2021/05/09 07:12:58;;;;;;;;;;;20.90;52.40;;;;;;5098510;28;19912;-67
2021/05/09 07:15:29;;;;;;;;;;;21.00;52.10;;;;;;5107718;28;19923;-67
2021/05/09 07:18:02;;;;;;;;;;;21.10;52.70;;;;;;5090255;28;19955;-67
2021/05/09 07:20:30;;;;;;;;;;;21.20;52.30;;;;;;5091965;28;19917;-66
2021/05/09 07:22:57;;;;;;;;;;;21.30;52.40;;;;;;5090351;28;19920;-66
2021/05/09 07:25:23;;;;;;;;;;;21.40;52.00;;;;;;5088868;28;19912;-67
2021/05/09 07:27:49;;;;;;;;;;;21.60;52.50;;;;;;5085058;28;19919;-67
2021/05/09 07:30:14;;;;;;;;;;;21.70;51.60;;;;;;5078457;28;19916;-68
2021/05/09 07:32:40;;;;;;;;;;;21.70;52.70;;;;;;5083515;28;19912;-67
2021/05/09 07:35:06;;;;;;;;;;;22.10;52.00;;;;;;5079817;28;20329;-68
2021/05/09 07:37:33;;;;;;;;;;;22.80;50.20;;;;;;5087238;28;19932;-68
2021/05/09 07:39:59;;;;;;;;;;;23.80;50.00;;;;;;5085204;28;19912;-67
2021/05/09 07:42:24;;;;;;;;;;;24.90;47.80;;;;;;5068929;28;19920;-68
2021/05/09 07:44:54;;;;;;;;;;;26.10;47.50;;;;;;5081084;28;19920;-68
2021/05/09 07:47:20;;;;;;;;;;;26.70;46.50;;;;;;5087139;28;19962;-67
2021/05/09 07:49:46;;;;;;;;;;;26.80;45.00;;;;;;5085760;28;19951;-68
2021/05/09 07:52:12;;;;;;;;;;;26.90;44.20;;;;;;5093322;28;19912;-68
2021/05/09 07:54:38;;;;;;;;;;;27.00;45.30;;;;;;5096232;28;19919;-67
2021/05/09 07:57:05;;;;;;;;;;;26.90;46.30;;;;;;5079649;28;20297;-68
2021/05/09 07:59:32;;;;;;;;;;;27.10;44.30;;;;;;5082256;28;19934;-68
2021/05/09 08:01:58;;;;;;;;;;;27.20;44.20;;;;;;5078926;28;19927;-68
2021/05/09 08:04:23;;;;;;;;;;;27.80;45.20;;;;;;5086459;28;19916;-67
2021/05/09 08:06:49;;;;;;;;;;;28.20;42.90;;;;;;5088411;28;19916;-68
2021/05/09 08:09:15;;;;;;;;;;;28.60;43.70;;;;;;5089785;28;19930;-68
2021/05/09 08:11:41;;;;;;;;;;;29.20;43.50;;;;;;5089022;28;20224;-67
2021/05/09 08:14:07;;;;;;;;;;;29.50;42.30;;;;;;5084793;28;19919;-67
2021/05/09 08:16:32;;;;;;;;;;;30.00;42.30;;;;;;5104712;28;20296;-67
2021/05/09 08:18:58;;;;;;;;;;;30.50;42.90;;;;;;5105621;28;19956;-68
2021/05/09 08:21:24;;;;;;;;;;;30.20;43.10;;;;;;5113042;28;20010;-67
2021/05/09 08:23:49;;;;;;;;;;;29.90;42.40;;;;;;5111214;28;19916;-67
2021/05/09 08:26:15;;;;;;;;;;;29.60;40.80;;;;;;5108951;28;20315;-67
2021/05/09 08:28:42;;;;;;;;;;;29.20;43.50;;;;;;5116031;28;19972;-67
2021/05/09 08:31:10;;;;;;;;;;;29.10;41.50;;;;;;5111591;28;19926;-67
2021/05/09 08:33:36;;;;;;;;;;;29.50;44.30;;;;;;5098111;28;19958;-67
2021/05/09 08:36:02;;;;;;;;;;;29.70;45.20;;;;;;5112957;28;20255;-67
2021/05/09 08:38:28;;;;;;;;;;;29.90;44.50;;;;;;5116846;28;19962;-67
2021/05/09 08:40:53;;;;;;;;;;;30.10;41.30;;;;;;5116605;28;19955;-68
2021/05/09 08:43:19;;;;;;;;;;;30.40;41.50;;;;;;5111903;28;19916;-68
2021/05/09 08:45:45;;;;;;;;;;;30.50;42.30;;;;;;5109467;28;19992;-68
2021/05/09 08:48:18;;;;;;;;;;;30.30;41.50;;;;;;5105605;28;20317;-67
2021/05/09 08:50:44;;;;;;;;;;;30.10;40.80;;;;;;5106134;28;20018;-68
2021/05/09 08:53:10;;;;;;;;;;;29.70;40.30;;;;;;5109533;28;20034;-68
2021/05/09 08:55:35;;;;;;;;;;;30.30;40.30;;;;;;5110171;28;19974;-68
2021/05/09 08:58:01;;;;;;;;;;;30.10;40.30;;;;;;5114980;28;19915;-67
2021/05/09 09:00:27;;;;;;;;;;;29.10;40.30;;;;;;5109411;27;19923;-68
2021/05/09 09:02:53;;;;;;;;;;;29.10;40.60;;;;;;5106837;28;20444;-68
2021/05/09 09:05:32;;;;;;;;;;;30.40;40.20;;;;;;5109666;28;19939;-68
2021/05/09 09:07:58;;;;;;;;;;;31.10;39.60;;;;;;5104992;28;20236;-67
2021/05/09 09:10:34;;;;;;;;;;;30.80;40.00;;;;;;5114019;28;19923;-67
2021/05/09 09:13:02;;;;;;;;;;;30.70;39.20;;;;;;5112715;28;19915;-67
2021/05/09 09:15:47;;;;;;;;;;;30.50;38.50;;;;;;5099406;28;19924;-67
2021/05/09 09:18:27;;;;;;;;;;;31.40;40.00;;;;;;5109965;28;19923;-68
2021/05/09 09:21:00;;;;;;;;;;;30.50;38.90;;;;;;5105275;27;19919;-67
2021/05/09 09:23:42;;;;;;;;;;;31.20;38.60;;;;;;5118419;27;19919;-67
2021/05/09 09:26:30;;;;;;;;;;;31.50;37.90;;;;;;5106631;27;19912;-68
2021/05/09 09:28:57;;;;;;;;;;;31.80;38.20;;;;;;5112130;27;19927;-66
2021/05/09 09:31:41;;;;;;;;;;;33.00;39.30;;;;;;5113278;27;20192;-68
2021/05/09 09:34:07;;;;;;;;;;;33.00;36.20;;;;;;5118102;27;19922;-67
2021/05/09 09:36:33;;;;;;;;;;;32.70;38.30;;;;;;5099352;27;20031;-67
2021/05/09 09:38:59;;;;;;;;;;;32.10;37.30;;;;;;5120118;27;19922;-68
2021/05/09 09:41:25;;;;;;;;;;;31.20;38.90;;;;;;5118707;27;19912;-69
2021/05/09 09:43:59;;;;;;;;;;;31.90;39.40;;;;;;5110967;27;19919;-69
2021/05/09 09:46:27;;;;;;;;;;;31.60;37.50;;;;;;5106331;28;20373;-69
2021/05/09 09:48:53;;;;;;;;;;;31.40;37.10;;;;;;5109649;28;19926;-69
2021/05/09 09:51:20;;;;;;;;;;;31.80;36.70;;;;;;5105717;28;19916;-68
2021/05/09 09:53:45;;;;;;;;;;;31.80;36.60;;;;;;5110917;27;19926;-68
2021/05/09 09:56:15;;;;;;;;;;;31.80;38.10;;;;;;5114883;27;19912;-68
2021/05/09 09:58:59;;;;;;;;;;;31.50;39.40;;;;;;5098639;28;19919;-68
2021/05/09 10:01:33;;;;;;;;;;;31.30;37.10;;;;;;5119482;27;19943;-67
2021/05/09 10:03:59;;;;;;;;;;;31.00;38.70;;;;;;5113387;27;19924;-67
2021/05/09 10:06:27;;;;;;;;;;;30.10;38.20;;;;;;5118310;27;19916;-67
2021/05/09 10:08:53;;;;;;;;;;;30.30;39.10;;;;;;5099594;27;19918;-68
2021/05/09 10:11:20;;;;;;;;;;;30.70;39.10;;;;;;5120175;27;19919;-68
2021/05/09 10:13:46;;;;;;;;;;;30.90;40.50;;;;;;5106833;28;19987;-67
2021/05/09 10:16:12;;;;;;;;;;;30.80;37.00;;;;;;5105622;28;19924;-67
2021/05/09 10:18:44;;;;;;;;;;;30.10;38.20;;;;;;5106947;28;20437;-67
2021/05/09 10:21:10;;;;;;;;;;;30.20;39.50;;;;;;5105955;28;19916;-67
2021/05/09 10:23:56;;;;;;;;;;;30.70;38.50;;;;;;5090140;28;19923;-67
2021/05/09 10:26:31;;;;;;;;;;;31.40;38.70;;;;;;5120531;27;20620;-68
2021/05/09 10:28:56;;;;;;;;;;;30.80;39.00;;;;;;5114706;27;19926;-67
2021/05/09 10:31:29;;;;;;;;;;;31.20;38.90;;;;;;5119881;27;20315;-67
2021/05/09 10:33:55;;;;;;;;;;;31.10;39.00;;;;;;5108868;28;19934;-66
2021/05/09 10:36:20;;;;;;;;;;;31.60;39.00;;;;;;5104842;28;19939;-67
2021/05/09 10:39:04;;;;;;;;;;;31.50;39.30;;;;;;5109279;28;19963;-67
2021/05/09 10:41:31;;;;;;;;;;;32.00;39.50;;;;;;5114577;27;20517;-67
2021/05/09 10:43:57;;;;;;;;;;;32.80;38.60;;;;;;5116398;28;19919;-67
2021/05/09 10:46:23;;;;;;;;;;;33.40;36.50;;;;;;5115913;28;19911;-67
2021/05/09 10:49:07;;;;;;;;;;;33.50;37.40;;;;;;5109180;28;19920;-67
2021/05/09 10:51:34;;;;;;;;;;;33.10;37.00;;;;;;5112682;28;19923;-67
2021/05/09 10:54:20;;;;;;;;;;;33.30;36.40;;;;;;5112588;28;20498;-66
2021/05/09 10:56:46;;;;;;;;;;;33.00;38.10;;;;;;5114932;28;19991;-67
2021/05/09 10:59:11;;;;;;;;;;;32.10;40.30;;;;;;5103247;28;20374;-66
2021/05/09 11:01:37;;;;;;;;;;;32.30;38.90;;;;;;5119191;28;20014;-67
2021/05/09 11:04:06;;;;;;;;;;;31.80;39.10;;;;;;5106492;28;19939;-67
2021/05/09 11:06:37;;;;;;;;;;;31.50;41.40;;;;;;5105404;28;19912;-67
2021/05/09 11:09:13;;;;;;;;;;;30.80;39.90;;;;;;5112195;28;19919;-67
2021/05/09 11:11:45;;;;;;;;;;;30.60;41.70;;;;;;5115337;28;19912;-67
2021/05/09 11:14:11;;;;;;;;;;;30.90;39.50;;;;;;5111785;28;19911;-67
2021/05/09 11:16:56;;;;;;;;;;;31.50;39.80;;;;;;5125999;28;20346;-67
2021/05/09 11:19:26;;;;;;;;;;;31.80;41.40;;;;;;5130089;28;19919;-67
2021/05/09 11:21:56;;;;;;;;;;;31.00;39.50;;;;;;5105978;28;19968;-67
2021/05/09 11:24:25;;;;;;;;;;;30.40;40.00;;;;;;5114541;28;20002;-66
2021/05/09 11:26:52;;;;;;;;;;;30.70;41.00;;;;;;5114531;28;19912;-67
2021/05/09 11:29:20;;;;;;;;;;;30.50;38.80;;;;;;5114693;28;19931;-67
2021/05/09 11:31:53;;;;;;;;;;;31.10;39.70;;;;;;5103985;28;19966;-67
2021/05/09 11:34:20;;;;;;;;;;;30.90;39.50;;;;;;5100750;28;19911;-67
2021/05/09 11:36:46;;;;;;;;;;;30.60;38.80;;;;;;5115349;28;19912;-67
2021/05/09 11:39:13;;;;;;;;;;;30.60;39.70;;;;;;5118288;28;19915;-67
2021/05/09 11:41:51;;;;;;;;;;;30.80;40.30;;;;;;5108082;28;19918;-66
2021/05/09 11:44:17;;;;;;;;;;;31.00;40.00;;;;;;5094901;28;19916;-67
2021/05/09 11:46:43;;;;;;;;;;;31.20;39.90;;;;;;5103680;28;19916;-67
2021/05/09 11:49:14;;;;;;;;;;;31.80;42.10;;;;;;5096703;28;20102;-67
2021/05/09 11:51:57;;;;;;;;;;;31.40;38.10;;;;;;5112664;28;19918;-67
2021/05/09 11:54:24;;;;;;;;;;;30.30;40.30;;;;;;5134666;28;19919;-68
2021/05/09 11:56:51;;;;;;;;;;;30.50;40.70;;;;;;5113126;28;19947;-67
2021/05/09 11:59:29;;;;;;;;;;;30.50;40.80;;;;;;5116100;28;19935;-68
2021/05/09 12:01:56;;;;;;;;;;;30.30;41.80;;;;;;5134139;27;19955;-67
2021/05/09 12:04:28;;;;;;;;;;;30.40;41.60;;;;;;5110897;27;19923;-68
2021/05/09 12:06:54;;;;;;;;;;;30.20;41.30;;;;;;5117105;28;19912;-67
2021/05/09 12:09:21;;;;;;;;;;;29.90;42.30;;;;;;5118206;28;19912;-68
2021/05/09 12:11:47;;;;;;;;;;;30.00;42.90;;;;;;5105164;27;19920;-67
2021/05/09 12:14:13;;;;;;;;;;;30.60;40.40;;;;;;5095600;28;19939;-68
2021/05/09 12:16:46;;;;;;;;;;;31.10;42.10;;;;;;5103529;28;20228;-67
2021/05/09 12:19:12;;;;;;;;;;;31.30;41.30;;;;;;5117440;28;20361;-68
2021/05/09 12:21:38;;;;;;;;;;;31.60;41.40;;;;;;5118204;28;20002;-68
2021/05/09 12:24:06;;;;;;;;;;;31.70;39.00;;;;;;5117877;28;19927;-68
2021/05/09 12:26:34;;;;;;;;;;;31.30;40.60;;;;;;5098122;28;19919;-67
2021/05/09 12:29:15;;;;;;;;;;;31.70;41.20;;;;;;5099157;28;19937;-67
2021/05/09 12:31:44;;;;;;;;;;;31.80;39.70;;;;;;5116952;28;20300;-67
2021/05/09 12:34:14;;;;;;;;;;;31.30;40.60;;;;;;5114108;28;20002;-67
2021/05/09 12:36:41;;;;;;;;;;;31.30;39.10;;;;;;5114392;28;19989;-67
2021/05/09 12:39:19;;;;;;;;;;;30.60;40.10;;;;;;5118642;28;19912;-67
2021/05/09 12:41:53;;;;;;;;;;;30.30;42.80;;;;;;5117617;28;19965;-67
2021/05/09 12:44:22;;;;;;;;;;;30.30;41.80;;;;;;5113118;28;20233;-68
2021/05/09 12:46:48;;;;;;;;;;;29.70;41.60;;;;;;5084797;28;19962;-69
2021/05/09 12:49:16;;;;;;;;;;;29.30;41.00;;;;;;5112924;28;19919;-69
2021/05/09 12:51:59;;;;;;;;;;;29.30;42.40;;;;;;5117839;28;19916;-69
2021/05/09 12:54:45;;;;;;;;;;;29.50;42.00;;;;;;5118248;28;19937;-69
2021/05/09 12:57:18;;;;;;;;;;;30.20;39.50;;;;;;5117916;28;19919;-69
2021/05/09 12:59:57;;;;;;;;;;;30.90;42.20;;;;;;5118155;28;19961;-69
2021/05/09 13:02:25;;;;;;;;;;;31.50;40.60;;;;;;5117232;28;19919;-69
2021/05/09 13:04:57;;;;;;;;;;;32.10;42.00;;;;;;5117653;28;20261;-69
2021/05/09 13:07:23;;;;;;;;;;;31.80;40.80;;;;;;5118199;28;19912;-69
2021/05/09 13:09:50;;;;;;;;;;;31.60;41.00;;;;;;5118093;28;20319;-69
2021/05/09 13:12:16;;;;;;;;;;;31.90;41.00;;;;;;5117294;28;19915;-69
2021/05/09 13:14:48;;;;;;;;;;;31.90;41.40;;;;;;5118020;28;19951;-69
2021/05/09 13:17:15;;;;;;;;;;;31.70;40.90;;;;;;5101055;28;19924;-69
2021/05/09 13:19:41;;;;;;;;;;;31.60;40.60;;;;;;5096224;28;19912;-69
2021/05/09 13:22:08;;;;;;;;;;;30.60;39.70;;;;;;5117442;28;19912;-68
2021/05/09 13:24:34;;;;;;;;;;;30.60;41.10;;;;;;5117506;28;20212;-70
2021/05/09 13:26:59;;;;;;;;;;;31.40;39.50;;;;;;5117830;28;19907;-69
2021/05/09 13:29:26;;;;;;;;;;;32.10;39.20;;;;;;5116738;28;20283;-70
2021/05/09 13:31:52;;;;;;;;;;;32.30;37.80;;;;;;5118169;28;19915;-68
2021/05/09 13:34:17;;;;;;;;;;;32.20;40.30;;;;;;5116351;28;19997;-69
2021/05/09 13:36:43;;;;;;;;;;;32.30;39.00;;;;;;5117340;28;20212;-69
2021/05/09 13:39:09;;;;;;;;;;;32.20;40.00;;;;;;5117519;28;20068;-69
2021/05/09 13:41:35;;;;;;;;;;;31.40;39.70;;;;;;5116538;28;20307;-69
2021/05/09 13:44:00;;;;;;;;;;;31.00;40.80;;;;;;5117420;28;20233;-69
2021/05/09 13:46:26;;;;;;;;;;;32.00;39.60;;;;;;5104263;28;20003;-69
2021/05/09 13:48:51;;;;;;;;;;;32.60;38.00;;;;;;5110022;28;19915;-69
2021/05/09 13:51:17;;;;;;;;;;;32.50;38.20;;;;;;5117275;28;20404;-69
2021/05/09 13:53:43;;;;;;;;;;;32.10;38.90;;;;;;5116898;28;19911;-69
2021/05/09 13:56:08;;;;;;;;;;;32.40;40.50;;;;;;5117109;28;19912;-69
2021/05/09 13:58:34;;;;;;;;;;;32.70;38.40;;;;;;5117073;28;19912;-69
2021/05/09 14:00:59;;;;;;;;;;;32.40;38.10;;;;;;5116499;28;19974;-70
2021/05/09 14:03:25;;;;;;;;;;;32.10;37.50;;;;;;5115944;28;19923;-70
2021/05/09 14:05:51;;;;;;;;;;;31.40;37.00;;;;;;5116773;28;20332;-68
2021/05/09 14:08:16;;;;;;;;;;;31.40;38.00;;;;;;5116875;28;19991;-69
2021/05/09 14:10:42;;;;;;;;;;;31.40;37.50;;;;;;5116650;28;19908;-69
2021/05/09 14:13:07;;;;;;;;;;;32.00;40.90;;;;;;5116929;28;19908;-69
2021/05/09 14:15:39;;;;;;;;;;;32.40;37.90;;;;;;5115942;28;19920;-70
2021/05/09 14:18:05;;;;;;;;;;;33.00;38.40;;;;;;5115513;28;19919;-69